Weather at Thong Binh Airport [CLOSED]

Public forecast

Using degrees Celsius for public forecast. Weather courtesy of forecast.io.

Closest aviation weather report (METAR) to Thong Binh Airport

Closest report is Can Tho International Airport, 51.8 nm (95.9 km) SSE.

2024/07/24 02:30 (retrieved 37 minutes ago)

VVCT 240230Z 26007KT 220V320 9999 SCT013 FEW017CB 31/28 Q1007 NOSIG

Closest aviation forecast (TAF) to Thong Binh Airport

Forecast is more than 12 hours old.

Closest forecast is Car Nicobar Air Force Base, 757.7 nm (1,403.2 km) W.

2024/07/23 12:00 (retrieved 15 hours ago)

TAF VOCX 230930Z 2312/2324 22010KT 6000 SCT015 BKN090 TEMPO 1215/1217 24010G20KT 5000 RA SCT015 FEW025TCU BKN090